sensor_id;sensor_type;location;lat;lon;timestamp;P1;durP1;ratioP1;P2;durP2;ratioP2
7485;SDS011;3784;54.098;9.998;2022-07-06T00:00:05;5.10;;;2.60;;
7485;SDS011;3784;54.098;9.998;2022-07-06T00:02:32;6.33;;;2.40;;
7485;SDS011;3784;54.098;9.998;2022-07-06T00:04:58;5.90;;;2.10;;
7485;SDS011;3784;54.098;9.998;2022-07-06T00:07:25;5.93;;;2.40;;
7485;SDS011;3784;54.098;9.998;2022-07-06T00:09:51;4.07;;;2.60;;
7485;SDS011;3784;54.098;9.998;2022-07-06T00:12:18;6.93;;;2.03;;
7485;SDS011;3784;54.098;9.998;2022-07-06T00:14:44;3.63;;;2.13;;
7485;SDS011;3784;54.098;9.998;2022-07-06T00:17:11;4.67;;;2.27;;
7485;SDS011;3784;54.098;9.998;2022-07-06T00:19:38;7.70;;;2.60;;
7485;SDS011;3784;54.098;9.998;2022-07-06T00:22:04;3.70;;;2.33;;
7485;SDS011;3784;54.098;9.998;2022-07-06T00:24:30;3.20;;;2.10;;
7485;SDS011;3784;54.098;9.998;2022-07-06T00:26:57;3.60;;;1.90;;
7485;SDS011;3784;54.098;9.998;2022-07-06T00:29:23;5.80;;;1.90;;
7485;SDS011;3784;54.098;9.998;2022-07-06T00:31:50;6.40;;;2.50;;
7485;SDS011;3784;54.098;9.998;2022-07-06T00:34:17;7.83;;;2.80;;
7485;SDS011;3784;54.098;9.998;2022-07-06T00:36:43;5.47;;;2.33;;
7485;SDS011;3784;54.098;9.998;2022-07-06T00:39:10;6.60;;;2.50;;
7485;SDS011;3784;54.098;9.998;2022-07-06T00:41:36;4.90;;;2.20;;
7485;SDS011;3784;54.098;9.998;2022-07-06T00:44:06;4.70;;;2.13;;
7485;SDS011;3784;54.098;9.998;2022-07-06T00:46:34;4.57;;;2.37;;
7485;SDS011;3784;54.098;9.998;2022-07-06T00:49:00;5.83;;;2.50;;
7485;SDS011;3784;54.098;9.998;2022-07-06T00:51:31;3.27;;;2.00;;
7485;SDS011;3784;54.098;9.998;2022-07-06T00:53:59;5.43;;;2.03;;
7485;SDS011;3784;54.098;9.998;2022-07-06T00:56:28;3.37;;;1.93;;
7485;SDS011;3784;54.098;9.998;2022-07-06T00:58:56;5.00;;;2.30;;
7485;SDS011;3784;54.098;9.998;2022-07-06T01:01:22;6.20;;;2.03;;
7485;SDS011;3784;54.098;9.998;2022-07-06T01:03:49;4.23;;;1.87;;
7485;SDS011;3784;54.098;9.998;2022-07-06T01:06:16;7.47;;;2.37;;
7485;SDS011;3784;54.098;9.998;2022-07-06T01:08:42;3.97;;;2.40;;
7485;SDS011;3784;54.098;9.998;2022-07-06T01:11:09;3.93;;;1.87;;
7485;SDS011;3784;54.098;9.998;2022-07-06T01:13:36;5.47;;;2.13;;
7485;SDS011;3784;54.098;9.998;2022-07-06T01:16:03;6.93;;;2.10;;
7485;SDS011;3784;54.098;9.998;2022-07-06T01:18:30;4.43;;;2.43;;
7485;SDS011;3784;54.098;9.998;2022-07-06T01:21:06;4.83;;;1.80;;
7485;SDS011;3784;54.098;9.998;2022-07-06T01:23:38;3.33;;;1.90;;
7485;SDS011;3784;54.098;9.998;2022-07-06T01:26:12;3.83;;;2.10;;
7485;SDS011;3784;54.098;9.998;2022-07-06T01:28:39;5.93;;;2.40;;
7485;SDS011;3784;54.098;9.998;2022-07-06T01:31:13;5.60;;;1.90;;
7485;SDS011;3784;54.098;9.998;2022-07-06T01:33:49;3.97;;;1.90;;
7485;SDS011;3784;54.098;9.998;2022-07-06T01:36:17;5.03;;;2.20;;
7485;SDS011;3784;54.098;9.998;2022-07-06T01:38:48;4.43;;;1.97;;
7485;SDS011;3784;54.098;9.998;2022-07-06T01:41:16;3.97;;;2.20;;
7485;SDS011;3784;54.098;9.998;2022-07-06T01:43:43;4.73;;;2.20;;
7485;SDS011;3784;54.098;9.998;2022-07-06T01:46:10;4.90;;;2.10;;
7485;SDS011;3784;54.098;9.998;2022-07-06T01:48:37;4.47;;;1.97;;
7485;SDS011;3784;54.098;9.998;2022-07-06T01:51:04;3.83;;;2.10;;
7485;SDS011;3784;54.098;9.998;2022-07-06T01:53:31;3.57;;;1.90;;
7485;SDS011;3784;54.098;9.998;2022-07-06T01:55:57;4.67;;;2.10;;
7485;SDS011;3784;54.098;9.998;2022-07-06T01:58:24;5.20;;;2.27;;
7485;SDS011;3784;54.098;9.998;2022-07-06T02:00:51;7.13;;;2.40;;
7485;SDS011;3784;54.098;9.998;2022-07-06T02:03:17;3.97;;;1.97;;
7485;SDS011;3784;54.098;9.998;2022-07-06T02:05:44;5.23;;;1.90;;
7485;SDS011;3784;54.098;9.998;2022-07-06T02:08:10;3.30;;;1.97;;
7485;SDS011;3784;54.098;9.998;2022-07-06T02:10:37;3.37;;;1.90;;
7485;SDS011;3784;54.098;9.998;2022-07-06T02:13:03;3.87;;;1.90;;
7485;SDS011;3784;54.098;9.998;2022-07-06T02:15:30;4.10;;;1.60;;
7485;SDS011;3784;54.098;9.998;2022-07-06T02:17:56;5.23;;;2.10;;
7485;SDS011;3784;54.098;9.998;2022-07-06T02:20:23;4.47;;;1.80;;
7485;SDS011;3784;54.098;9.998;2022-07-06T02:22:49;5.87;;;2.10;;
7485;SDS011;3784;54.098;9.998;2022-07-06T02:25:16;5.73;;;2.07;;
7485;SDS011;3784;54.098;9.998;2022-07-06T02:27:42;4.93;;;1.90;;
7485;SDS011;3784;54.098;9.998;2022-07-06T02:30:09;3.57;;;1.87;;
7485;SDS011;3784;54.098;9.998;2022-07-06T02:32:36;5.80;;;2.23;;
7485;SDS011;3784;54.098;9.998;2022-07-06T02:35:02;2.93;;;1.80;;
7485;SDS011;3784;54.098;9.998;2022-07-06T02:37:29;3.43;;;2.03;;
7485;SDS011;3784;54.098;9.998;2022-07-06T02:39:55;3.50;;;2.00;;
7485;SDS011;3784;54.098;9.998;2022-07-06T02:42:22;5.27;;;2.13;;
7485;SDS011;3784;54.098;9.998;2022-07-06T02:44:48;4.00;;;2.30;;
7485;SDS011;3784;54.098;9.998;2022-07-06T02:47:15;4.10;;;2.00;;
7485;SDS011;3784;54.098;9.998;2022-07-06T02:49:41;7.10;;;2.43;;
7485;SDS011;3784;54.098;9.998;2022-07-06T02:52:08;4.07;;;2.20;;
7485;SDS011;3784;54.098;9.998;2022-07-06T02:54:34;4.53;;;1.97;;
7485;SDS011;3784;54.098;9.998;2022-07-06T02:57:01;4.93;;;2.03;;
7485;SDS011;3784;54.098;9.998;2022-07-06T02:59:27;4.97;;;2.13;;
7485;SDS011;3784;54.098;9.998;2022-07-06T03:01:54;3.60;;;1.83;;
7485;SDS011;3784;54.098;9.998;2022-07-06T03:04:20;4.93;;;2.10;;
7485;SDS011;3784;54.098;9.998;2022-07-06T03:06:47;6.37;;;2.43;;
7485;SDS011;3784;54.098;9.998;2022-07-06T03:09:14;6.83;;;2.40;;
7485;SDS011;3784;54.098;9.998;2022-07-06T03:11:40;3.37;;;1.93;;
7485;SDS011;3784;54.098;9.998;2022-07-06T03:14:07;4.70;;;1.90;;
7485;SDS011;3784;54.098;9.998;2022-07-06T03:16:33;7.03;;;2.13;;
7485;SDS011;3784;54.098;9.998;2022-07-06T03:19:00;3.90;;;1.90;;
7485;SDS011;3784;54.098;9.998;2022-07-06T03:21:26;6.57;;;1.90;;
7485;SDS011;3784;54.098;9.998;2022-07-06T03:23:53;6.07;;;1.90;;
7485;SDS011;3784;54.098;9.998;2022-07-06T03:26:19;6.63;;;2.13;;
7485;SDS011;3784;54.098;9.998;2022-07-06T03:28:46;4.20;;;2.07;;
7485;SDS011;3784;54.098;9.998;2022-07-06T03:31:12;7.50;;;2.60;;
7485;SDS011;3784;54.098;9.998;2022-07-06T03:33:39;4.43;;;1.80;;
7485;SDS011;3784;54.098;9.998;2022-07-06T03:36:06;5.70;;;1.97;;
7485;SDS011;3784;54.098;9.998;2022-07-06T03:38:34;5.80;;;2.17;;
7485;SDS011;3784;54.098;9.998;2022-07-06T03:41:00;4.20;;;1.80;;
7485;SDS011;3784;54.098;9.998;2022-07-06T03:43:27;5.60;;;1.87;;
7485;SDS011;3784;54.098;9.998;2022-07-06T03:45:54;4.67;;;2.20;;
7485;SDS011;3784;54.098;9.998;2022-07-06T03:48:20;5.37;;;2.03;;
7485;SDS011;3784;54.098;9.998;2022-07-06T03:50:47;6.13;;;2.07;;
7485;SDS011;3784;54.098;9.998;2022-07-06T03:53:14;5.23;;;2.07;;
7485;SDS011;3784;54.098;9.998;2022-07-06T03:55:40;5.90;;;2.00;;
7485;SDS011;3784;54.098;9.998;2022-07-06T03:58:07;3.57;;;1.73;;
7485;SDS011;3784;54.098;9.998;2022-07-06T04:00:33;4.90;;;2.20;;
7485;SDS011;3784;54.098;9.998;2022-07-06T04:03:00;6.43;;;2.33;;
7485;SDS011;3784;54.098;9.998;2022-07-06T04:05:27;5.47;;;2.10;;
7485;SDS011;3784;54.098;9.998;2022-07-06T04:07:54;4.17;;;1.93;;
7485;SDS011;3784;54.098;9.998;2022-07-06T04:10:20;4.40;;;1.97;;
7485;SDS011;3784;54.098;9.998;2022-07-06T04:12:46;4.93;;;1.93;;
7485;SDS011;3784;54.098;9.998;2022-07-06T04:15:13;5.37;;;1.90;;
7485;SDS011;3784;54.098;9.998;2022-07-06T04:17:39;2.93;;;1.73;;
7485;SDS011;3784;54.098;9.998;2022-07-06T04:20:19;3.50;;;1.80;;
7485;SDS011;3784;54.098;9.998;2022-07-06T04:22:46;4.03;;;1.73;;
7485;SDS011;3784;54.098;9.998;2022-07-06T04:25:13;5.40;;;1.90;;
7485;SDS011;3784;54.098;9.998;2022-07-06T04:27:39;6.03;;;2.07;;
7485;SDS011;3784;54.098;9.998;2022-07-06T04:30:07;3.97;;;2.00;;
7485;SDS011;3784;54.098;9.998;2022-07-06T04:32:34;4.83;;;1.70;;
7485;SDS011;3784;54.098;9.998;2022-07-06T04:35:01;5.17;;;1.60;;
7485;SDS011;3784;54.098;9.998;2022-07-06T04:37:29;5.33;;;2.03;;
7485;SDS011;3784;54.098;9.998;2022-07-06T04:39:55;4.77;;;1.77;;
7485;SDS011;3784;54.098;9.998;2022-07-06T04:42:22;4.27;;;1.83;;
7485;SDS011;3784;54.098;9.998;2022-07-06T04:44:48;4.37;;;1.70;;
7485;SDS011;3784;54.098;9.998;2022-07-06T04:47:15;8.47;;;2.30;;
7485;SDS011;3784;54.098;9.998;2022-07-06T04:49:42;3.47;;;2.30;;
7485;SDS011;3784;54.098;9.998;2022-07-06T04:52:08;5.07;;;2.33;;
7485;SDS011;3784;54.098;9.998;2022-07-06T04:54:35;7.27;;;1.90;;
7485;SDS011;3784;54.098;9.998;2022-07-06T04:57:01;3.80;;;1.87;;
7485;SDS011;3784;54.098;9.998;2022-07-06T04:59:34;3.97;;;2.00;;
7485;SDS011;3784;54.098;9.998;2022-07-06T05:02:00;6.97;;;2.10;;
7485;SDS011;3784;54.098;9.998;2022-07-06T05:04:27;5.60;;;2.30;;
7485;SDS011;3784;54.098;9.998;2022-07-06T05:06:53;5.43;;;2.03;;
7485;SDS011;3784;54.098;9.998;2022-07-06T05:09:20;4.27;;;2.13;;
7485;SDS011;3784;54.098;9.998;2022-07-06T05:11:46;3.83;;;2.10;;
7485;SDS011;3784;54.098;9.998;2022-07-06T05:14:13;4.53;;;2.00;;
7485;SDS011;3784;54.098;9.998;2022-07-06T05:16:39;6.67;;;2.13;;
7485;SDS011;3784;54.098;9.998;2022-07-06T05:19:06;6.10;;;2.13;;
7485;SDS011;3784;54.098;9.998;2022-07-06T05:21:32;5.60;;;2.53;;
7485;SDS011;3784;54.098;9.998;2022-07-06T05:23:59;6.53;;;2.00;;
7485;SDS011;3784;54.098;9.998;2022-07-06T05:26:25;6.83;;;2.00;;
7485;SDS011;3784;54.098;9.998;2022-07-06T05:28:52;5.20;;;2.70;;
7485;SDS011;3784;54.098;9.998;2022-07-06T05:31:18;5.87;;;2.63;;
7485;SDS011;3784;54.098;9.998;2022-07-06T05:33:45;7.40;;;2.90;;
7485;SDS011;3784;54.098;9.998;2022-07-06T05:36:11;7.70;;;2.37;;
7485;SDS011;3784;54.098;9.998;2022-07-06T05:38:38;7.17;;;2.47;;
7485;SDS011;3784;54.098;9.998;2022-07-06T05:41:04;5.27;;;2.57;;
7485;SDS011;3784;54.098;9.998;2022-07-06T05:43:31;5.30;;;2.30;;
7485;SDS011;3784;54.098;9.998;2022-07-06T05:45:57;5.47;;;2.27;;
7485;SDS011;3784;54.098;9.998;2022-07-06T05:48:24;7.27;;;2.10;;
7485;SDS011;3784;54.098;9.998;2022-07-06T05:51:09;4.40;;;1.93;;
7485;SDS011;3784;54.098;9.998;2022-07-06T05:53:35;4.80;;;2.20;;
7485;SDS011;3784;54.098;9.998;2022-07-06T05:56:02;8.43;;;2.33;;
7485;SDS011;3784;54.098;9.998;2022-07-06T05:58:28;6.73;;;2.00;;
7485;SDS011;3784;54.098;9.998;2022-07-06T06:00:55;6.13;;;2.07;;
7485;SDS011;3784;54.098;9.998;2022-07-06T06:03:21;4.27;;;1.87;;
7485;SDS011;3784;54.098;9.998;2022-07-06T06:05:48;4.90;;;2.23;;
7485;SDS011;3784;54.098;9.998;2022-07-06T06:08:15;6.10;;;2.03;;
7485;SDS011;3784;54.098;9.998;2022-07-06T06:10:41;6.20;;;1.90;;
7485;SDS011;3784;54.098;9.998;2022-07-06T06:13:08;2.77;;;1.33;;
7485;SDS011;3784;54.098;9.998;2022-07-06T06:15:34;5.37;;;1.77;;
7485;SDS011;3784;54.098;9.998;2022-07-06T06:18:01;2.40;;;1.47;;
7485;SDS011;3784;54.098;9.998;2022-07-06T06:20:30;2.23;;;1.40;;
7485;SDS011;3784;54.098;9.998;2022-07-06T06:22:57;4.83;;;1.67;;
7485;SDS011;3784;54.098;9.998;2022-07-06T06:25:28;2.30;;;1.30;;
7485;SDS011;3784;54.098;9.998;2022-07-06T06:27:57;3.37;;;1.30;;
7485;SDS011;3784;54.098;9.998;2022-07-06T06:30:23;5.13;;;1.40;;
7485;SDS011;3784;54.098;9.998;2022-07-06T06:32:50;4.53;;;1.33;;
7485;SDS011;3784;54.098;9.998;2022-07-06T06:35:17;4.03;;;1.40;;
7485;SDS011;3784;54.098;9.998;2022-07-06T06:37:43;1.70;;;1.10;;
7485;SDS011;3784;54.098;9.998;2022-07-06T06:40:10;1.57;;;1.13;;
7485;SDS011;3784;54.098;9.998;2022-07-06T06:42:37;2.93;;;1.23;;
7485;SDS011;3784;54.098;9.998;2022-07-06T06:45:06;1.90;;;1.20;;
7485;SDS011;3784;54.098;9.998;2022-07-06T06:47:33;2.77;;;1.40;;
7485;SDS011;3784;54.098;9.998;2022-07-06T06:50:00;4.07;;;1.40;;
7485;SDS011;3784;54.098;9.998;2022-07-06T06:52:26;3.07;;;1.20;;
7485;SDS011;3784;54.098;9.998;2022-07-06T06:55:08;2.20;;;1.20;;
7485;SDS011;3784;54.098;9.998;2022-07-06T06:57:35;2.60;;;1.23;;
7485;SDS011;3784;54.098;9.998;2022-07-06T07:00:02;2.60;;;1.10;;
7485;SDS011;3784;54.098;9.998;2022-07-06T07:02:30;2.20;;;1.00;;
7485;SDS011;3784;54.098;9.998;2022-07-06T07:04:57;3.97;;;1.57;;
7485;SDS011;3784;54.098;9.998;2022-07-06T07:07:23;3.17;;;1.33;;
7485;SDS011;3784;54.098;9.998;2022-07-06T07:09:50;2.70;;;1.13;;
7485;SDS011;3784;54.098;9.998;2022-07-06T07:12:17;2.73;;;1.30;;
7485;SDS011;3784;54.098;9.998;2022-07-06T07:14:43;6.13;;;1.60;;
7485;SDS011;3784;54.098;9.998;2022-07-06T07:17:10;3.87;;;1.30;;
7485;SDS011;3784;54.098;9.998;2022-07-06T07:19:37;1.93;;;1.07;;
7485;SDS011;3784;54.098;9.998;2022-07-06T07:22:04;2.70;;;1.27;;
7485;SDS011;3784;54.098;9.998;2022-07-06T07:24:31;2.50;;;1.20;;
7485;SDS011;3784;54.098;9.998;2022-07-06T07:26:57;3.20;;;1.30;;
7485;SDS011;3784;54.098;9.998;2022-07-06T07:29:24;3.57;;;1.30;;
7485;SDS011;3784;54.098;9.998;2022-07-06T07:31:51;2.80;;;1.47;;
7485;SDS011;3784;54.098;9.998;2022-07-06T07:34:17;2.23;;;1.20;;
7485;SDS011;3784;54.098;9.998;2022-07-06T07:36:44;1.27;;;1.00;;
7485;SDS011;3784;54.098;9.998;2022-07-06T07:39:10;2.77;;;1.20;;
7485;SDS011;3784;54.098;9.998;2022-07-06T07:41:37;2.27;;;1.20;;
7485;SDS011;3784;54.098;9.998;2022-07-06T07:44:04;2.17;;;1.17;;
7485;SDS011;3784;54.098;9.998;2022-07-06T07:46:30;1.00;;;0.90;;
7485;SDS011;3784;54.098;9.998;2022-07-06T07:48:57;2.10;;;1.20;;
7485;SDS011;3784;54.098;9.998;2022-07-06T07:51:23;1.70;;;1.00;;
7485;SDS011;3784;54.098;9.998;2022-07-06T07:53:50;2.17;;;1.20;;
7485;SDS011;3784;54.098;9.998;2022-07-06T07:56:16;1.83;;;1.20;;
7485;SDS011;3784;54.098;9.998;2022-07-06T07:58:43;1.00;;;0.80;;
7485;SDS011;3784;54.098;9.998;2022-07-06T08:01:09;2.43;;;1.20;;
7485;SDS011;3784;54.098;9.998;2022-07-06T08:03:37;1.73;;;1.17;;
7485;SDS011;3784;54.098;9.998;2022-07-06T08:06:03;3.67;;;1.33;;
7485;SDS011;3784;54.098;9.998;2022-07-06T08:08:30;1.90;;;1.10;;
7485;SDS011;3784;54.098;9.998;2022-07-06T08:10:56;2.60;;;1.03;;
7485;SDS011;3784;54.098;9.998;2022-07-06T08:13:43;2.37;;;1.00;;
7485;SDS011;3784;54.098;9.998;2022-07-06T08:16:09;4.03;;;1.53;;
7485;SDS011;3784;54.098;9.998;2022-07-06T08:18:37;2.80;;;1.20;;
7485;SDS011;3784;54.098;9.998;2022-07-06T08:21:03;3.37;;;1.20;;
7485;SDS011;3784;54.098;9.998;2022-07-06T08:23:50;1.60;;;0.90;;
7485;SDS011;3784;54.098;9.998;2022-07-06T08:26:17;4.00;;;1.20;;
7485;SDS011;3784;54.098;9.998;2022-07-06T08:28:43;2.00;;;1.27;;
7485;SDS011;3784;54.098;9.998;2022-07-06T08:31:10;2.30;;;1.13;;
7485;SDS011;3784;54.098;9.998;2022-07-06T08:33:57;2.37;;;1.37;;
7485;SDS011;3784;54.098;9.998;2022-07-06T08:36:23;3.53;;;1.10;;
7485;SDS011;3784;54.098;9.998;2022-07-06T08:38:50;1.73;;;1.20;;
7485;SDS011;3784;54.098;9.998;2022-07-06T08:41:17;2.97;;;1.30;;
7485;SDS011;3784;54.098;9.998;2022-07-06T08:43:51;2.27;;;1.10;;
7485;SDS011;3784;54.098;9.998;2022-07-06T08:46:18;2.97;;;1.40;;
7485;SDS011;3784;54.098;9.998;2022-07-06T08:48:46;2.67;;;1.00;;
7485;SDS011;3784;54.098;9.998;2022-07-06T08:51:13;2.07;;;1.37;;
7485;SDS011;3784;54.098;9.998;2022-07-06T08:53:44;1.97;;;1.23;;
7485;SDS011;3784;54.098;9.998;2022-07-06T08:56:12;2.80;;;1.10;;
7485;SDS011;3784;54.098;9.998;2022-07-06T08:58:39;2.87;;;1.00;;
7485;SDS011;3784;54.098;9.998;2022-07-06T09:01:11;2.77;;;1.13;;
7485;SDS011;3784;54.098;9.998;2022-07-06T09:03:39;2.70;;;1.00;;
7485;SDS011;3784;54.098;9.998;2022-07-06T09:06:06;2.47;;;1.37;;
7485;SDS011;3784;54.098;9.998;2022-07-06T09:08:33;3.83;;;1.20;;
7485;SDS011;3784;54.098;9.998;2022-07-06T09:11:02;4.80;;;1.30;;
7485;SDS011;3784;54.098;9.998;2022-07-06T09:13:29;2.37;;;1.20;;
7485;SDS011;3784;54.098;9.998;2022-07-06T09:15:56;1.13;;;0.80;;
7485;SDS011;3784;54.098;9.998;2022-07-06T09:18:55;2.80;;;1.10;;
7485;SDS011;3784;54.098;9.998;2022-07-06T09:21:23;2.60;;;1.10;;
7485;SDS011;3784;54.098;9.998;2022-07-06T09:23:55;3.80;;;1.00;;
7485;SDS011;3784;54.098;9.998;2022-07-06T09:26:23;3.90;;;1.23;;
7485;SDS011;3784;54.098;9.998;2022-07-06T09:28:50;3.37;;;1.17;;
7485;SDS011;3784;54.098;9.998;2022-07-06T09:31:17;3.03;;;1.10;;
7485;SDS011;3784;54.098;9.998;2022-07-06T09:33:56;2.07;;;1.10;;
7485;SDS011;3784;54.098;9.998;2022-07-06T09:36:39;4.33;;;1.40;;
7485;SDS011;3784;54.098;9.998;2022-07-06T09:41:44;2.53;;;1.43;;
7485;SDS011;3784;54.098;9.998;2022-07-06T09:44:11;3.47;;;1.37;;
7485;SDS011;3784;54.098;9.998;2022-07-06T09:46:41;3.83;;;1.33;;
7485;SDS011;3784;54.098;9.998;2022-07-06T09:49:08;3.83;;;1.23;;
7485;SDS011;3784;54.098;9.998;2022-07-06T09:51:36;4.93;;;1.40;;
7485;SDS011;3784;54.098;9.998;2022-07-06T09:54:05;3.63;;;1.40;;
7485;SDS011;3784;54.098;9.998;2022-07-06T09:56:40;4.07;;;1.43;;
7485;SDS011;3784;54.098;9.998;2022-07-06T09:59:08;5.00;;;1.43;;
7485;SDS011;3784;54.098;9.998;2022-07-06T10:01:37;4.13;;;1.60;;
7485;SDS011;3784;54.098;9.998;2022-07-06T10:04:08;4.03;;;1.50;;
7485;SDS011;3784;54.098;9.998;2022-07-06T10:06:35;3.20;;;1.40;;
7485;SDS011;3784;54.098;9.998;2022-07-06T10:09:05;2.07;;;1.23;;
7485;SDS011;3784;54.098;9.998;2022-07-06T10:11:43;4.87;;;1.70;;
7485;SDS011;3784;54.098;9.998;2022-07-06T10:14:12;3.97;;;1.30;;
7485;SDS011;3784;54.098;9.998;2022-07-06T10:16:41;3.63;;;1.13;;
7485;SDS011;3784;54.098;9.998;2022-07-06T10:19:08;2.87;;;1.40;;
7485;SDS011;3784;54.098;9.998;2022-07-06T10:21:36;3.73;;;1.43;;
7485;SDS011;3784;54.098;9.998;2022-07-06T10:24:04;3.37;;;1.20;;
7485;SDS011;3784;54.098;9.998;2022-07-06T10:26:35;4.33;;;1.40;;
7485;SDS011;3784;54.098;9.998;2022-07-06T10:29:02;3.40;;;1.23;;
7485;SDS011;3784;54.098;9.998;2022-07-06T10:31:29;3.30;;;1.50;;
7485;SDS011;3784;54.098;9.998;2022-07-06T10:33:57;2.80;;;1.33;;
7485;SDS011;3784;54.098;9.998;2022-07-06T10:36:28;3.90;;;1.40;;
7485;SDS011;3784;54.098;9.998;2022-07-06T10:38:55;2.90;;;1.27;;
7485;SDS011;3784;54.098;9.998;2022-07-06T10:41:32;3.90;;;1.67;;
7485;SDS011;3784;54.098;9.998;2022-07-06T10:44:14;3.33;;;1.40;;
7485;SDS011;3784;54.098;9.998;2022-07-06T10:46:51;2.73;;;1.30;;
7485;SDS011;3784;54.098;9.998;2022-07-06T10:49:19;3.63;;;1.30;;
7485;SDS011;3784;54.098;9.998;2022-07-06T10:52:06;4.40;;;1.57;;
7485;SDS011;3784;54.098;9.998;2022-07-06T10:54:38;5.47;;;1.70;;
7485;SDS011;3784;54.098;9.998;2022-07-06T10:57:09;2.80;;;1.23;;
7485;SDS011;3784;54.098;9.998;2022-07-06T10:59:36;3.83;;;1.40;;
7485;SDS011;3784;54.098;9.998;2022-07-06T11:02:16;4.17;;;1.43;;
7485;SDS011;3784;54.098;9.998;2022-07-06T11:04:45;3.33;;;1.30;;
7485;SDS011;3784;54.098;9.998;2022-07-06T11:07:13;3.17;;;1.37;;
7485;SDS011;3784;54.098;9.998;2022-07-06T11:09:41;2.47;;;1.33;;
7485;SDS011;3784;54.098;9.998;2022-07-06T11:12:20;6.20;;;1.80;;
7485;SDS011;3784;54.098;9.998;2022-07-06T11:14:47;5.57;;;1.67;;
7485;SDS011;3784;54.098;9.998;2022-07-06T11:17:15;6.37;;;1.63;;
7485;SDS011;3784;54.098;9.998;2022-07-06T11:19:59;3.93;;;1.20;;
7485;SDS011;3784;54.098;9.998;2022-07-06T11:22:36;3.90;;;1.27;;
7485;SDS011;3784;54.098;9.998;2022-07-06T11:25:04;2.83;;;1.30;;
7485;SDS011;3784;54.098;9.998;2022-07-06T11:27:31;3.83;;;1.30;;
7485;SDS011;3784;54.098;9.998;2022-07-06T11:29:59;4.53;;;1.50;;
7485;SDS011;3784;54.098;9.998;2022-07-06T11:32:26;2.80;;;1.27;;
7485;SDS011;3784;54.098;9.998;2022-07-06T11:34:53;3.63;;;1.20;;
7485;SDS011;3784;54.098;9.998;2022-07-06T11:37:20;3.40;;;1.30;;
7485;SDS011;3784;54.098;9.998;2022-07-06T11:39:47;3.93;;;1.10;;
7485;SDS011;3784;54.098;9.998;2022-07-06T11:42:15;4.23;;;1.50;;
7485;SDS011;3784;54.098;9.998;2022-07-06T11:44:45;2.80;;;1.30;;
7485;SDS011;3784;54.098;9.998;2022-07-06T11:47:12;3.43;;;1.07;;
7485;SDS011;3784;54.098;9.998;2022-07-06T11:49:49;4.30;;;1.50;;
7485;SDS011;3784;54.098;9.998;2022-07-06T11:52:16;3.33;;;1.30;;
7485;SDS011;3784;54.098;9.998;2022-07-06T11:54:43;4.17;;;1.07;;
7485;SDS011;3784;54.098;9.998;2022-07-06T11:57:10;4.83;;;1.30;;
7485;SDS011;3784;54.098;9.998;2022-07-06T11:59:38;3.80;;;1.40;;
7485;SDS011;3784;54.098;9.998;2022-07-06T12:02:06;3.77;;;1.30;;
7485;SDS011;3784;54.098;9.998;2022-07-06T12:04:35;3.77;;;1.40;;
7485;SDS011;3784;54.098;9.998;2022-07-06T12:07:04;2.83;;;1.40;;
7485;SDS011;3784;54.098;9.998;2022-07-06T12:09:41;2.83;;;1.30;;
7485;SDS011;3784;54.098;9.998;2022-07-06T12:12:09;5.50;;;1.70;;
7485;SDS011;3784;54.098;9.998;2022-07-06T12:14:37;3.90;;;1.30;;
7485;SDS011;3784;54.098;9.998;2022-07-06T12:17:04;5.83;;;1.37;;
7485;SDS011;3784;54.098;9.998;2022-07-06T12:19:33;2.57;;;1.20;;
7485;SDS011;3784;54.098;9.998;2022-07-06T12:22:00;4.90;;;1.20;;
7485;SDS011;3784;54.098;9.998;2022-07-06T12:24:29;5.83;;;1.50;;
7485;SDS011;3784;54.098;9.998;2022-07-06T12:26:57;2.27;;;1.20;;
7485;SDS011;3784;54.098;9.998;2022-07-06T12:29:25;3.13;;;1.17;;
7485;SDS011;3784;54.098;9.998;2022-07-06T12:31:52;5.10;;;1.50;;
7485;SDS011;3784;54.098;9.998;2022-07-06T12:34:20;2.80;;;1.30;;
7485;SDS011;3784;54.098;9.998;2022-07-06T12:36:54;2.50;;;1.33;;
7485;SDS011;3784;54.098;9.998;2022-07-06T12:39:22;7.17;;;1.47;;
7485;SDS011;3784;54.098;9.998;2022-07-06T12:41:58;4.27;;;1.50;;
7485;SDS011;3784;54.098;9.998;2022-07-06T12:44:27;4.00;;;1.30;;
7485;SDS011;3784;54.098;9.998;2022-07-06T12:47:04;5.80;;;1.50;;
7485;SDS011;3784;54.098;9.998;2022-07-06T12:49:35;2.70;;;1.27;;
7485;SDS011;3784;54.098;9.998;2022-07-06T12:54:36;3.83;;;1.40;;
7485;SDS011;3784;54.098;9.998;2022-07-06T12:57:10;4.53;;;1.37;;
7485;SDS011;3784;54.098;9.998;2022-07-06T12:59:42;4.87;;;1.30;;
7485;SDS011;3784;54.098;9.998;2022-07-06T13:02:17;2.33;;;1.23;;
7485;SDS011;3784;54.098;9.998;2022-07-06T13:04:53;3.80;;;1.47;;
7485;SDS011;3784;54.098;9.998;2022-07-06T13:07:21;3.23;;;1.27;;
7485;SDS011;3784;54.098;9.998;2022-07-06T13:09:48;3.07;;;1.23;;
7485;SDS011;3784;54.098;9.998;2022-07-06T13:12:14;5.60;;;1.70;;
7485;SDS011;3784;54.098;9.998;2022-07-06T13:14:41;4.03;;;1.70;;
7485;SDS011;3784;54.098;9.998;2022-07-06T13:17:14;2.93;;;1.53;;
7485;SDS011;3784;54.098;9.998;2022-07-06T13:19:41;3.03;;;1.30;;
7485;SDS011;3784;54.098;9.998;2022-07-06T13:22:07;3.70;;;1.30;;
7485;SDS011;3784;54.098;9.998;2022-07-06T13:24:34;4.73;;;1.50;;
7485;SDS011;3784;54.098;9.998;2022-07-06T13:27:04;2.53;;;1.30;;
7485;SDS011;3784;54.098;9.998;2022-07-06T13:29:31;4.90;;;1.27;;
7485;SDS011;3784;54.098;9.998;2022-07-06T13:31:58;4.67;;;1.40;;
7485;SDS011;3784;54.098;9.998;2022-07-06T13:34:24;4.33;;;1.40;;
7485;SDS011;3784;54.098;9.998;2022-07-06T13:36:51;2.97;;;1.50;;
7485;SDS011;3784;54.098;9.998;2022-07-06T13:39:18;2.40;;;1.10;;
7485;SDS011;3784;54.098;9.998;2022-07-06T13:41:45;5.47;;;1.53;;
7485;SDS011;3784;54.098;9.998;2022-07-06T13:44:11;2.43;;;1.00;;
7485;SDS011;3784;54.098;9.998;2022-07-06T13:46:40;2.70;;;1.03;;
7485;SDS011;3784;54.098;9.998;2022-07-06T13:49:08;4.17;;;1.47;;
7485;SDS011;3784;54.098;9.998;2022-07-06T13:51:35;3.50;;;1.40;;
7485;SDS011;3784;54.098;9.998;2022-07-06T13:54:02;3.60;;;1.40;;
7485;SDS011;3784;54.098;9.998;2022-07-06T13:56:29;2.17;;;1.17;;
7485;SDS011;3784;54.098;9.998;2022-07-06T13:58:55;5.77;;;1.80;;
7485;SDS011;3784;54.098;9.998;2022-07-06T14:01:22;2.73;;;1.23;;
7485;SDS011;3784;54.098;9.998;2022-07-06T14:03:55;2.93;;;1.27;;
7485;SDS011;3784;54.098;9.998;2022-07-06T14:06:22;2.60;;;1.10;;
7485;SDS011;3784;54.098;9.998;2022-07-06T14:08:48;2.80;;;1.30;;
7485;SDS011;3784;54.098;9.998;2022-07-06T14:11:15;3.80;;;1.40;;
7485;SDS011;3784;54.098;9.998;2022-07-06T14:13:42;3.63;;;1.13;;
7485;SDS011;3784;54.098;9.998;2022-07-06T14:16:08;3.20;;;1.20;;
7485;SDS011;3784;54.098;9.998;2022-07-06T14:18:35;4.47;;;1.43;;
7485;SDS011;3784;54.098;9.998;2022-07-06T14:21:02;3.53;;;1.00;;
7485;SDS011;3784;54.098;9.998;2022-07-06T14:23:29;3.20;;;1.30;;
7485;SDS011;3784;54.098;9.998;2022-07-06T14:25:56;4.97;;;1.43;;
7485;SDS011;3784;54.098;9.998;2022-07-06T14:28:23;4.57;;;1.40;;
7485;SDS011;3784;54.098;9.998;2022-07-06T14:33:24;2.57;;;1.00;;
7485;SDS011;3784;54.098;9.998;2022-07-06T14:35:51;4.53;;;1.50;;
7485;SDS011;3784;54.098;9.998;2022-07-06T14:38:18;4.63;;;1.37;;
7485;SDS011;3784;54.098;9.998;2022-07-06T14:40:45;3.67;;;1.37;;
7485;SDS011;3784;54.098;9.998;2022-07-06T14:43:15;4.53;;;1.60;;
7485;SDS011;3784;54.098;9.998;2022-07-06T14:45:46;4.60;;;1.30;;
7485;SDS011;3784;54.098;9.998;2022-07-06T14:48:13;3.63;;;1.20;;
7485;SDS011;3784;54.098;9.998;2022-07-06T14:50:39;4.33;;;1.30;;
7485;SDS011;3784;54.098;9.998;2022-07-06T14:53:06;4.67;;;1.50;;
7485;SDS011;3784;54.098;9.998;2022-07-06T14:55:32;3.37;;;1.20;;
7485;SDS011;3784;54.098;9.998;2022-07-06T14:57:59;5.93;;;1.63;;
7485;SDS011;3784;54.098;9.998;2022-07-06T15:00:26;3.03;;;1.27;;
7485;SDS011;3784;54.098;9.998;2022-07-06T15:02:52;4.50;;;1.23;;
7485;SDS011;3784;54.098;9.998;2022-07-06T15:05:19;3.43;;;1.20;;
7485;SDS011;3784;54.098;9.998;2022-07-06T15:07:46;2.90;;;1.20;;
7485;SDS011;3784;54.098;9.998;2022-07-06T15:10:20;3.00;;;1.23;;
7485;SDS011;3784;54.098;9.998;2022-07-06T15:12:46;3.43;;;1.23;;
7485;SDS011;3784;54.098;9.998;2022-07-06T15:15:13;4.23;;;1.40;;
7485;SDS011;3784;54.098;9.998;2022-07-06T15:18:00;1.73;;;0.93;;
7485;SDS011;3784;54.098;9.998;2022-07-06T15:20:27;2.07;;;1.33;;
7485;SDS011;3784;54.098;9.998;2022-07-06T15:22:53;3.90;;;1.33;;
7485;SDS011;3784;54.098;9.998;2022-07-06T15:25:20;3.40;;;1.30;;
7485;SDS011;3784;54.098;9.998;2022-07-06T15:27:48;4.37;;;1.20;;